createdAt,value
2022-07-29T00:01:37.940Z,23.77
2022-07-29T00:04:24.420Z,23.48
2022-07-29T00:07:10.871Z,23.58
2022-07-29T00:09:59.406Z,23.75
2022-07-29T00:12:45.637Z,23.91
2022-07-29T00:15:33.445Z,23.73
2022-07-29T00:18:19.617Z,23.75
2022-07-29T00:21:06.002Z,24.01
2022-07-29T00:23:52.361Z,23.79
2022-07-29T00:26:38.578Z,23.63
2022-07-29T00:29:34.196Z,23.87
2022-07-29T00:32:21.283Z,24.02
2022-07-29T00:35:26.706Z,24.12
2022-07-29T00:38:15.081Z,24.16
2022-07-29T00:41:01.050Z,24.30
2022-07-29T00:43:47.427Z,24.08
2022-07-29T00:46:33.765Z,24.07
2022-07-29T00:49:20.221Z,24.27
2022-07-29T00:52:07.136Z,24.24
2022-07-29T00:54:53.627Z,24.36
2022-07-29T00:57:41.432Z,24.37
2022-07-29T01:00:29.287Z,24.50
2022-07-29T01:03:15.703Z,24.27
2022-07-29T01:06:02.347Z,24.48
2022-07-29T01:08:49.309Z,24.40
2022-07-29T01:11:37.108Z,24.42
2022-07-29T01:14:24.172Z,24.51
2022-07-29T01:17:26.705Z,24.61
2022-07-29T01:20:33.779Z,24.48
2022-07-29T01:23:29.467Z,24.05
2022-07-29T01:26:49.215Z,24.15
2022-07-29T01:29:42.890Z,24.14
2022-07-29T01:32:37.645Z,24.39
2022-07-29T01:35:27.020Z,24.43
2022-07-29T01:38:25.979Z,24.57
2022-07-29T01:41:16.548Z,24.59
2022-07-29T01:44:21.623Z,24.29
2022-07-29T01:47:13.907Z,24.65
2022-07-29T01:50:01.439Z,24.57
2022-07-29T01:53:00.434Z,24.16
2022-07-29T01:55:47.163Z,24.32
2022-07-29T01:58:33.637Z,24.37
2022-07-29T02:01:21.374Z,24.39
2022-07-29T02:04:10.811Z,24.43
2022-07-29T02:07:00.218Z,24.36
2022-07-29T02:09:48.450Z,24.42
2022-07-29T02:12:36.659Z,24.15
2022-07-29T02:15:25.114Z,24.11
2022-07-29T02:18:18.923Z,24.24
2022-07-29T02:21:06.149Z,24.28
2022-07-29T02:24:02.678Z,24.26
2022-07-29T02:26:50.818Z,24.18
2022-07-29T02:29:38.419Z,24.13
2022-07-29T02:32:25.800Z,24.07
2022-07-29T02:35:14.395Z,24.04
2022-07-29T02:38:19.489Z,24.02
2022-07-29T02:41:12.324Z,23.97
2022-07-29T02:44:03.939Z,23.96
2022-07-29T02:47:00.503Z,24.01
2022-07-29T02:49:54.464Z,24.01
2022-07-29T02:52:44.670Z,24.21
2022-07-29T02:55:58.087Z,24.13
2022-07-29T02:58:49.090Z,24.01
2022-07-29T03:01:36.150Z,24.18
2022-07-29T03:04:24.051Z,24.15
2022-07-29T03:07:12.260Z,23.96
2022-07-29T03:09:58.657Z,24.22
2022-07-29T03:12:45.421Z,24.27
2022-07-29T03:15:32.059Z,24.19
2022-07-29T03:18:18.663Z,24.11
2022-07-29T03:21:05.106Z,24.03
2022-07-29T03:23:52.055Z,23.99
2022-07-29T03:26:38.323Z,23.68
2022-07-29T03:29:25.238Z,24.04
2022-07-29T03:32:23.741Z,23.92
2022-07-29T03:35:11.905Z,23.97
2022-07-29T03:37:57.929Z,24.09
2022-07-29T03:40:49.961Z,24.05
2022-07-29T03:43:39.079Z,23.99
2022-07-29T03:46:37.037Z,23.99
2022-07-29T03:49:24.912Z,24.07
2022-07-29T03:52:11.907Z,24.10
2022-07-29T03:54:57.946Z,24.03
2022-07-29T03:57:45.871Z,24.03
2022-07-29T04:00:32.994Z,23.94
2022-07-29T04:03:19.250Z,23.93
2022-07-29T04:06:07.478Z,23.99
2022-07-29T04:08:54.207Z,24.00
2022-07-29T04:12:02.587Z,23.98
2022-07-29T04:14:48.222Z,23.88
2022-07-29T04:17:34.879Z,24.09
2022-07-29T04:20:21.655Z,23.99
2022-07-29T04:23:07.994Z,23.95
2022-07-29T04:25:54.871Z,23.98
2022-07-29T04:28:41.460Z,23.97
2022-07-29T04:31:28.725Z,24.01
2022-07-29T04:34:14.825Z,23.98
2022-07-29T04:37:01.730Z,23.99
2022-07-29T04:39:48.076Z,23.90
2022-07-29T04:42:34.308Z,24.17
2022-07-29T04:45:30.223Z,24.20
2022-07-29T04:48:16.657Z,24.10
2022-07-29T04:51:03.127Z,23.95
2022-07-29T04:53:49.312Z,24.48
2022-07-29T04:56:35.781Z,24.37
2022-07-29T04:59:22.143Z,24.31
2022-07-29T05:02:08.410Z,24.57
2022-07-29T05:04:54.732Z,24.61
2022-07-29T05:07:41.467Z,24.34
2022-07-29T05:10:28.171Z,24.30
2022-07-29T05:13:14.494Z,24.78
2022-07-29T05:16:00.894Z,24.75
2022-07-29T05:18:47.272Z,24.92
2022-07-29T05:21:33.669Z,25.10
2022-07-29T05:24:20.158Z,25.26
2022-07-29T05:27:06.598Z,24.92
2022-07-29T05:29:53.213Z,24.77
2022-07-29T05:32:39.373Z,25.20
2022-07-29T05:35:25.713Z,25.22
2022-07-29T05:38:12.179Z,25.47
2022-07-29T05:41:00.136Z,25.20
2022-07-29T05:43:46.467Z,25.50
2022-07-29T05:46:32.974Z,25.22
2022-07-29T05:49:27.126Z,25.60
2022-07-29T05:52:14.290Z,25.36
2022-07-29T05:55:03.775Z,25.75
2022-07-29T05:57:49.853Z,25.66
2022-07-29T06:00:36.381Z,25.82
2022-07-29T06:03:22.510Z,25.62
2022-07-29T06:06:08.662Z,25.70
2022-07-29T06:08:55.270Z,25.95
2022-07-29T06:11:41.748Z,25.62
2022-07-29T06:14:29.273Z,25.73
2022-07-29T06:17:17.366Z,25.75
2022-07-29T06:20:04.788Z,26.15
2022-07-29T06:22:50.987Z,26.17
2022-07-29T06:25:37.736Z,26.12
2022-07-29T06:28:24.084Z,25.90
2022-07-29T06:31:10.750Z,26.53
2022-07-29T06:33:57.106Z,26.59
2022-07-29T06:36:43.495Z,26.47
2022-07-29T06:39:29.731Z,26.72
2022-07-29T06:42:16.634Z,26.85
2022-07-29T06:45:06.208Z,26.63
2022-07-29T06:47:55.872Z,26.63
2022-07-29T06:50:42.150Z,26.83
2022-07-29T06:53:28.721Z,26.95
2022-07-29T06:56:14.976Z,27.18
2022-07-29T06:59:01.513Z,26.97
2022-07-29T07:01:47.918Z,27.17
2022-07-29T07:04:34.476Z,27.51
2022-07-29T07:07:20.392Z,26.75
2022-07-29T07:10:07.712Z,27.44
2022-07-29T07:12:53.614Z,27.40
2022-07-29T07:15:40.310Z,27.74
2022-07-29T07:18:26.556Z,27.60
2022-07-29T07:21:19.155Z,27.77
2022-07-29T07:24:05.951Z,27.49
2022-07-29T07:26:52.364Z,27.93
2022-07-29T07:29:42.509Z,27.37
2022-07-29T07:32:30.852Z,27.90
2022-07-29T07:35:17.269Z,28.36
2022-07-29T07:38:03.831Z,27.72
2022-07-29T07:40:49.864Z,28.21
2022-07-29T07:43:36.119Z,28.69
2022-07-29T07:46:22.544Z,28.29
2022-07-29T07:49:09.044Z,28.60
2022-07-29T07:51:55.177Z,29.04
2022-07-29T07:54:41.473Z,28.90
2022-07-29T07:57:28.026Z,29.05
2022-07-29T08:00:16.368Z,29.29
2022-07-29T08:03:06.232Z,28.92
2022-07-29T08:06:04.804Z,28.87
2022-07-29T08:08:51.974Z,29.27
2022-07-29T08:11:37.863Z,28.76
2022-07-29T08:14:38.869Z,29.34
2022-07-29T08:17:25.166Z,29.38
2022-07-29T08:20:11.862Z,30.10
2022-07-29T08:22:57.827Z,29.65
2022-07-29T08:25:43.988Z,30.26
2022-07-29T08:28:29.981Z,30.36
2022-07-29T08:31:16.611Z,30.63
2022-07-29T08:34:03.586Z,30.49
2022-07-29T08:36:50.388Z,30.56
2022-07-29T08:39:37.737Z,30.61
2022-07-29T08:42:23.892Z,30.63
2022-07-29T08:45:10.031Z,30.54
2022-07-29T08:47:56.501Z,30.99
2022-07-29T08:50:46.299Z,31.20
2022-07-29T08:53:33.112Z,31.18
2022-07-29T08:56:20.330Z,31.33
2022-07-29T08:59:07.022Z,30.41
2022-07-29T09:01:55.571Z,31.18
2022-07-29T09:04:42.526Z,31.70
2022-07-29T09:07:34.853Z,32.15
2022-07-29T09:10:21.135Z,32.40
2022-07-29T09:13:07.489Z,32.33
2022-07-29T09:15:53.916Z,32.64
2022-07-29T09:18:43.822Z,31.74
2022-07-29T09:21:59.847Z,32.53
2022-07-29T09:24:48.264Z,32.32
2022-07-29T09:27:35.317Z,32.58
2022-07-29T09:30:25.583Z,32.79
2022-07-29T09:33:18.658Z,32.96
2022-07-29T09:36:09.384Z,32.92
2022-07-29T09:39:04.618Z,32.90
2022-07-29T09:41:55.746Z,33.87
2022-07-29T09:44:51.659Z,33.56
2022-07-29T09:47:50.107Z,34.16
2022-07-29T09:50:37.549Z,33.42
2022-07-29T09:53:34.206Z,33.76
2022-07-29T09:56:20.597Z,34.34
2022-07-29T09:59:07.607Z,33.93
2022-07-29T10:01:54.493Z,33.81
2022-07-29T10:04:42.235Z,34.44
2022-07-29T10:07:44.471Z,34.24
2022-07-29T10:10:34.766Z,34.54
2022-07-29T10:13:20.812Z,34.15
2022-07-29T10:16:07.667Z,34.77
2022-07-29T10:18:53.757Z,35.03
2022-07-29T10:21:44.199Z,34.31
2022-07-29T10:24:31.737Z,35.29
2022-07-29T10:27:18.411Z,35.85
2022-07-29T10:30:05.658Z,35.79
2022-07-29T10:32:56.411Z,35.05
2022-07-29T10:35:48.655Z,35.39
2022-07-29T10:38:41.080Z,35.96
2022-07-29T10:41:50.380Z,36.12
2022-07-29T10:44:41.792Z,35.93
2022-07-29T10:47:28.391Z,35.63
2022-07-29T10:50:17.198Z,36.43
2022-07-29T10:53:04.935Z,36.47
2022-07-29T10:55:55.819Z,36.42
2022-07-29T10:58:42.556Z,35.99
2022-07-29T11:01:39.090Z,36.62
2022-07-29T11:04:44.394Z,36.55
2022-07-29T11:07:45.771Z,36.33
2022-07-29T11:10:32.611Z,36.12
2022-07-29T11:13:44.148Z,36.14
2022-07-29T11:17:00.755Z,36.52
2022-07-29T11:19:52.089Z,35.60
2022-07-29T11:22:43.154Z,34.75
2022-07-29T11:25:50.811Z,35.54
2022-07-29T11:28:43.588Z,34.38
2022-07-29T11:31:51.638Z,35.14
2022-07-29T11:34:41.637Z,36.10
2022-07-29T11:37:29.345Z,35.88
2022-07-29T11:40:18.502Z,36.93
2022-07-29T11:43:07.417Z,36.80
2022-07-29T11:45:54.550Z,36.67
2022-07-29T11:48:44.424Z,37.24
2022-07-29T11:51:32.999Z,37.10
2022-07-29T11:54:27.731Z,37.04
2022-07-29T11:57:14.070Z,36.60
2022-07-29T12:00:04.905Z,36.39
2022-07-29T12:02:57.845Z,36.39
2022-07-29T12:08:53.328Z,35.35
2022-07-29T12:11:39.911Z,35.50
2022-07-29T12:14:29.462Z,36.50
2022-07-29T12:17:32.823Z,36.58
2022-07-29T12:20:28.030Z,37.48
2022-07-29T12:23:17.363Z,37.61
2022-07-29T12:26:07.659Z,37.63
2022-07-29T12:28:56.811Z,38.30
2022-07-29T12:31:45.577Z,37.28
2022-07-29T12:34:31.928Z,38.74
2022-07-29T12:37:18.520Z,38.66
2022-07-29T12:40:08.463Z,39.19
2022-07-29T12:43:13.355Z,38.15
2022-07-29T12:46:13.652Z,38.00
2022-07-29T12:48:59.972Z,39.08
2022-07-29T12:51:45.924Z,38.91
2022-07-29T12:54:32.159Z,39.46
2022-07-29T12:57:19.980Z,38.75
2022-07-29T13:00:12.050Z,38.46
2022-07-29T13:03:00.428Z,38.21
2022-07-29T13:05:49.416Z,37.25
2022-07-29T13:08:35.942Z,38.37
2022-07-29T13:11:30.314Z,38.46
2022-07-29T13:14:34.128Z,38.64
2022-07-29T13:17:23.993Z,39.08
2022-07-29T13:20:13.675Z,39.10
2022-07-29T13:23:01.415Z,39.78
2022-07-29T13:25:47.392Z,38.77
2022-07-29T13:28:33.846Z,36.12
2022-07-29T13:31:20.415Z,38.19
2022-07-29T13:34:07.053Z,38.89
2022-07-29T13:36:53.526Z,39.16
2022-07-29T13:39:40.805Z,39.20
2022-07-29T13:42:27.302Z,38.79
2022-07-29T13:45:13.715Z,39.27
2022-07-29T13:48:00.127Z,39.47
2022-07-29T13:50:47.598Z,39.50
2022-07-29T13:53:33.782Z,39.97
2022-07-29T13:56:20.745Z,39.10
2022-07-29T13:59:06.430Z,39.45
2022-07-29T14:01:52.969Z,38.75
2022-07-29T14:04:39.835Z,39.44
2022-07-29T14:07:25.816Z,38.55
2022-07-29T14:10:12.669Z,37.27
2022-07-29T14:12:59.697Z,36.58
2022-07-29T14:15:45.993Z,36.24
2022-07-29T14:18:32.306Z,37.37
2022-07-29T14:21:18.710Z,37.26
2022-07-29T14:24:16.292Z,37.64
2022-07-29T14:27:08.963Z,36.02
2022-07-29T14:29:55.523Z,35.89
2022-07-29T14:32:41.898Z,36.02
2022-07-29T14:35:28.179Z,35.76
2022-07-29T14:38:14.546Z,36.14
2022-07-29T14:41:01.142Z,36.69
2022-07-29T14:43:48.264Z,37.18
2022-07-29T14:46:34.937Z,36.90
2022-07-29T14:49:21.116Z,37.26
2022-07-29T14:52:07.653Z,37.08
2022-07-29T14:54:53.902Z,36.64
2022-07-29T14:57:40.204Z,37.33
2022-07-29T15:00:26.940Z,38.01
2022-07-29T15:03:13.199Z,38.85
2022-07-29T15:06:10.705Z,38.67
2022-07-29T15:08:57.127Z,38.33
2022-07-29T15:11:43.882Z,37.17
2022-07-29T15:14:30.159Z,38.58
2022-07-29T15:17:16.497Z,38.40
2022-07-29T15:20:03.116Z,38.69
2022-07-29T15:22:49.685Z,39.03
2022-07-29T15:25:37.315Z,39.02
2022-07-29T15:28:23.915Z,39.05
2022-07-29T15:31:10.256Z,38.45
2022-07-29T15:33:59.417Z,38.06
2022-07-29T15:36:52.603Z,38.94
2022-07-29T15:39:39.711Z,38.00
2022-07-29T15:42:26.094Z,39.30
2022-07-29T15:45:12.564Z,39.26
2022-07-29T15:47:58.764Z,38.70
2022-07-29T15:50:47.178Z,38.35
2022-07-29T15:53:35.188Z,38.21
2022-07-29T15:56:21.845Z,38.06
2022-07-29T15:59:08.137Z,38.57
2022-07-29T16:01:54.826Z,38.14
2022-07-29T16:04:41.654Z,38.46
2022-07-29T16:07:31.263Z,37.55
2022-07-29T16:10:19.195Z,37.98
2022-07-29T16:13:04.935Z,38.27
2022-07-29T16:16:02.442Z,38.75
2022-07-29T16:18:49.173Z,37.93
2022-07-29T16:21:35.972Z,38.37
2022-07-29T16:24:22.208Z,38.26
2022-07-29T16:27:08.688Z,37.29
2022-07-29T16:29:55.705Z,38.28
2022-07-29T16:32:42.228Z,38.42
2022-07-29T16:35:39.584Z,38.51
2022-07-29T16:38:26.897Z,38.53
2022-07-29T16:41:13.667Z,38.02
2022-07-29T16:44:00.363Z,37.55
2022-07-29T16:46:46.536Z,37.61
2022-07-29T16:49:34.955Z,37.70
2022-07-29T16:52:21.230Z,37.08
2022-07-29T16:55:21.649Z,37.30
2022-07-29T16:58:07.732Z,36.90
2022-07-29T17:00:55.188Z,36.64
2022-07-29T17:04:01.297Z,36.53
2022-07-29T17:06:49.603Z,36.37
2022-07-29T17:09:35.730Z,36.26
2022-07-29T17:12:22.046Z,36.16
2022-07-29T17:15:10.612Z,36.09
2022-07-29T17:17:57.336Z,35.92
2022-07-29T17:20:43.507Z,36.28
2022-07-29T17:23:29.839Z,36.04
2022-07-29T17:26:16.707Z,35.99
2022-07-29T17:29:03.235Z,35.64
2022-07-29T17:31:49.042Z,35.46
2022-07-29T17:34:39.581Z,35.54
2022-07-29T17:37:25.772Z,35.49
2022-07-29T17:40:12.211Z,35.45
2022-07-29T17:49:18.569Z,35.28
2022-07-29T17:52:05.373Z,35.10
2022-07-29T17:54:51.765Z,34.71
2022-07-29T17:57:38.149Z,34.60
2022-07-29T18:00:24.954Z,34.48
2022-07-29T18:03:11.567Z,34.24
2022-07-29T18:05:57.865Z,33.95
2022-07-29T18:08:47.907Z,33.80
2022-07-29T18:11:34.251Z,33.51
2022-07-29T18:14:20.583Z,33.42
2022-07-29T18:17:06.910Z,33.50
2022-07-29T18:19:53.244Z,33.08
2022-07-29T18:22:39.652Z,33.09
2022-07-29T18:25:26.642Z,33.15
2022-07-29T18:28:12.721Z,32.76
2022-07-29T18:31:00.143Z,32.95
2022-07-29T18:33:46.405Z,32.87
2022-07-29T18:36:32.857Z,32.53
2022-07-29T18:39:21.150Z,32.45
2022-07-29T18:42:07.860Z,32.20
2022-07-29T18:44:54.855Z,32.17
2022-07-29T18:47:41.521Z,31.99
2022-07-29T18:50:33.454Z,31.80
2022-07-29T18:53:19.715Z,31.62
2022-07-29T18:56:06.149Z,31.53
2022-07-29T18:58:52.486Z,31.25
2022-07-29T19:01:38.927Z,31.26
2022-07-29T19:04:26.171Z,30.91
2022-07-29T19:07:12.181Z,30.75
2022-07-29T19:09:58.458Z,30.58
2022-07-29T19:12:44.551Z,28.14
2022-07-29T19:15:30.899Z,27.79
2022-07-29T19:18:18.163Z,28.33
2022-07-29T19:21:04.624Z,27.83
2022-07-29T19:24:01.790Z,28.93
2022-07-29T19:26:54.412Z,28.79
2022-07-29T19:29:40.778Z,29.74
2022-07-29T19:32:27.192Z,29.57
2022-07-29T19:35:28.290Z,29.55
2022-07-29T19:38:15.232Z,29.52
2022-07-29T19:41:01.492Z,29.29
2022-07-29T19:43:50.887Z,29.73
2022-07-29T19:46:38.708Z,29.61
2022-07-29T19:49:25.176Z,29.78
2022-07-29T19:52:11.245Z,29.69
2022-07-29T19:54:58.881Z,29.78
2022-07-29T19:57:46.295Z,29.40
2022-07-29T20:00:32.857Z,28.75
2022-07-29T20:03:19.155Z,28.84
2022-07-29T20:06:06.012Z,29.14
2022-07-29T20:08:56.774Z,29.12
2022-07-29T20:11:44.769Z,29.29
2022-07-29T20:14:31.259Z,28.99
2022-07-29T20:17:22.462Z,28.66
2022-07-29T20:20:09.020Z,28.68
2022-07-29T20:22:55.408Z,28.81
2022-07-29T20:25:42.217Z,28.75
2022-07-29T20:28:29.189Z,29.03
2022-07-29T20:31:16.737Z,28.36
2022-07-29T20:34:03.498Z,28.15
2022-07-29T20:36:50.698Z,28.83
2022-07-29T20:39:37.444Z,27.72
2022-07-29T20:42:24.038Z,27.48
2022-07-29T20:45:10.514Z,27.91
2022-07-29T20:47:57.153Z,28.37
2022-07-29T20:50:44.980Z,28.44
2022-07-29T20:53:31.458Z,27.65
2022-07-29T20:56:17.738Z,27.35
2022-07-29T20:59:04.473Z,27.22
2022-07-29T21:01:50.645Z,27.59
2022-07-29T21:04:37.198Z,28.02
2022-07-29T21:07:23.333Z,27.90
2022-07-29T21:10:09.831Z,28.00
2022-07-29T21:12:56.184Z,27.66
2022-07-29T21:15:45.955Z,27.24
2022-07-29T21:18:34.338Z,27.68
2022-07-29T21:21:20.959Z,27.66
2022-07-29T21:24:08.129Z,27.95
2022-07-29T21:27:21.497Z,27.86
2022-07-29T21:30:08.850Z,28.15
2022-07-29T21:32:55.564Z,27.49
2022-07-29T21:36:06.885Z,27.24
2022-07-29T21:38:48.830Z,27.88
2022-07-29T21:41:34.764Z,28.11
2022-07-29T21:44:21.898Z,28.20
2022-07-29T21:47:09.297Z,28.05
2022-07-29T21:49:55.781Z,28.10
2022-07-29T21:52:42.080Z,28.26
2022-07-29T21:55:28.976Z,27.74
2022-07-29T21:58:18.106Z,27.54
2022-07-29T22:01:04.878Z,27.35
2022-07-29T22:03:51.518Z,28.14
2022-07-29T22:06:37.732Z,27.86
2022-07-29T22:09:24.686Z,27.72
2022-07-29T22:12:11.141Z,27.53
2022-07-29T22:14:57.939Z,28.05
2022-07-29T22:17:43.934Z,27.75
2022-07-29T22:20:30.256Z,27.88
2022-07-29T22:23:16.799Z,27.12
2022-07-29T22:26:03.940Z,27.10
2022-07-29T22:28:49.969Z,27.18
2022-07-29T22:31:36.278Z,26.06
2022-07-29T22:34:22.675Z,26.59
2022-07-29T22:37:09.029Z,27.24
2022-07-29T22:39:55.271Z,27.18
2022-07-29T22:42:41.550Z,27.25
2022-07-29T22:45:28.065Z,27.27
2022-07-29T22:48:16.858Z,27.24
2022-07-29T22:51:03.187Z,26.63
2022-07-29T22:53:49.641Z,26.99
2022-07-29T22:56:36.777Z,26.88
2022-07-29T22:59:23.478Z,26.60
2022-07-29T23:02:09.605Z,26.54
2022-07-29T23:04:55.819Z,26.69
2022-07-29T23:07:42.096Z,25.98
2022-07-29T23:10:28.633Z,26.42
2022-07-29T23:13:14.940Z,26.25
2022-07-29T23:16:01.672Z,26.41
2022-07-29T23:18:48.245Z,26.07
2022-07-29T23:21:34.613Z,26.47
2022-07-29T23:24:21.084Z,25.75
2022-07-29T23:27:07.430Z,26.22
2022-07-29T23:29:53.817Z,26.14
2022-07-29T23:32:40.158Z,25.99
2022-07-29T23:35:26.962Z,26.01
2022-07-29T23:38:13.622Z,25.74
2022-07-29T23:41:01.663Z,25.80
2022-07-29T23:43:50.994Z,25.38
2022-07-29T23:46:37.397Z,25.71
2022-07-29T23:49:23.619Z,25.83
2022-07-29T23:52:09.957Z,25.60
2022-07-29T23:54:56.320Z,25.66
2022-07-29T23:58:03.075Z,25.54
